sensor_id;sensor_type;location;lat;lon;timestamp;P1;durP1;ratioP1;P2;durP2;ratioP2
39400;SDS011;54391;50.000;7.360;2023-04-26T00:01:14;9.00;;;3.95;;
39400;SDS011;54391;50.000;7.360;2023-04-26T00:03:42;10.50;;;3.25;;
39400;SDS011;54391;50.000;7.360;2023-04-26T00:06:10;7.00;;;2.63;;
39400;SDS011;54391;50.000;7.360;2023-04-26T00:08:39;12.93;;;3.78;;
39400;SDS011;54391;50.000;7.360;2023-04-26T00:11:07;13.35;;;3.83;;
39400;SDS011;54391;50.000;7.360;2023-04-26T00:13:35;8.65;;;3.63;;
39400;SDS011;54391;50.000;7.360;2023-04-26T00:16:03;14.10;;;4.97;;
39400;SDS011;54391;50.000;7.360;2023-04-26T00:18:30;16.02;;;6.00;;
39400;SDS011;54391;50.000;7.360;2023-04-26T00:20:58;10.52;;;4.20;;
39400;SDS011;54391;50.000;7.360;2023-04-26T00:23:28;9.35;;;3.85;;
39400;SDS011;54391;50.000;7.360;2023-04-26T00:25:56;6.07;;;3.25;;
39400;SDS011;54391;50.000;7.360;2023-04-26T00:28:23;7.53;;;2.90;;
39400;SDS011;54391;50.000;7.360;2023-04-26T00:30:51;5.63;;;2.80;;
39400;SDS011;54391;50.000;7.360;2023-04-26T00:33:18;9.35;;;3.75;;
39400;SDS011;54391;50.000;7.360;2023-04-26T00:35:45;7.90;;;3.05;;
39400;SDS011;54391;50.000;7.360;2023-04-26T00:38:13;6.00;;;2.75;;
39400;SDS011;54391;50.000;7.360;2023-04-26T00:40:42;9.05;;;3.45;;
39400;SDS011;54391;50.000;7.360;2023-04-26T00:43:09;7.72;;;3.72;;
39400;SDS011;54391;50.000;7.360;2023-04-26T00:45:36;9.13;;;3.72;;
39400;SDS011;54391;50.000;7.360;2023-04-26T00:48:04;10.00;;;3.53;;
39400;SDS011;54391;50.000;7.360;2023-04-26T00:50:32;8.95;;;3.00;;
39400;SDS011;54391;50.000;7.360;2023-04-26T00:53:00;8.70;;;3.70;;
39400;SDS011;54391;50.000;7.360;2023-04-26T00:55:29;8.93;;;4.32;;
39400;SDS011;54391;50.000;7.360;2023-04-26T00:57:57;7.53;;;3.65;;
39400;SDS011;54391;50.000;7.360;2023-04-26T01:00:25;7.82;;;3.10;;
39400;SDS011;54391;50.000;7.360;2023-04-26T01:02:53;8.55;;;3.35;;
39400;SDS011;54391;50.000;7.360;2023-04-26T01:05:21;9.98;;;3.80;;
39400;SDS011;54391;50.000;7.360;2023-04-26T01:07:48;8.52;;;3.50;;
39400;SDS011;54391;50.000;7.360;2023-04-26T01:10:16;7.57;;;3.22;;
39400;SDS011;54391;50.000;7.360;2023-04-26T01:12:43;9.82;;;3.45;;
39400;SDS011;54391;50.000;7.360;2023-04-26T01:15:12;6.72;;;3.58;;
39400;SDS011;54391;50.000;7.360;2023-04-26T01:17:40;10.35;;;3.45;;
39400;SDS011;54391;50.000;7.360;2023-04-26T01:20:08;7.68;;;3.70;;
39400;SDS011;54391;50.000;7.360;2023-04-26T01:22:40;10.10;;;3.75;;
39400;SDS011;54391;50.000;7.360;2023-04-26T01:25:07;9.27;;;3.65;;
39400;SDS011;54391;50.000;7.360;2023-04-26T01:27:37;8.82;;;3.75;;
39400;SDS011;54391;50.000;7.360;2023-04-26T01:30:06;9.50;;;4.20;;
39400;SDS011;54391;50.000;7.360;2023-04-26T01:32:34;7.07;;;4.25;;
39400;SDS011;54391;50.000;7.360;2023-04-26T01:35:01;9.52;;;4.30;;
39400;SDS011;54391;50.000;7.360;2023-04-26T01:37:30;6.45;;;3.70;;
39400;SDS011;54391;50.000;7.360;2023-04-26T01:39:59;9.55;;;3.83;;
39400;SDS011;54391;50.000;7.360;2023-04-26T01:42:26;12.35;;;4.45;;
39400;SDS011;54391;50.000;7.360;2023-04-26T01:44:54;9.15;;;3.95;;
39400;SDS011;54391;50.000;7.360;2023-04-26T01:47:21;7.68;;;4.15;;
39400;SDS011;54391;50.000;7.360;2023-04-26T01:49:50;10.82;;;4.10;;
39400;SDS011;54391;50.000;7.360;2023-04-26T01:52:19;12.68;;;4.72;;
39400;SDS011;54391;50.000;7.360;2023-04-26T01:54:46;12.02;;;4.88;;
39400;SDS011;54391;50.000;7.360;2023-04-26T01:57:15;11.20;;;4.63;;
39400;SDS011;54391;50.000;7.360;2023-04-26T01:59:43;7.60;;;4.18;;
39400;SDS011;54391;50.000;7.360;2023-04-26T02:02:10;10.07;;;4.38;;
39400;SDS011;54391;50.000;7.360;2023-04-26T02:04:37;11.48;;;5.53;;
39400;SDS011;54391;50.000;7.360;2023-04-26T02:07:05;13.18;;;5.15;;
39400;SDS011;54391;50.000;7.360;2023-04-26T02:09:32;13.13;;;3.92;;
39400;SDS011;54391;50.000;7.360;2023-04-26T02:12:00;13.52;;;4.40;;
39400;SDS011;54391;50.000;7.360;2023-04-26T02:14:29;10.82;;;4.80;;
39400;SDS011;54391;50.000;7.360;2023-04-26T02:16:57;14.75;;;5.15;;
39400;SDS011;54391;50.000;7.360;2023-04-26T02:19:24;13.18;;;5.57;;
39400;SDS011;54391;50.000;7.360;2023-04-26T02:21:52;10.50;;;4.97;;
39400;SDS011;54391;50.000;7.360;2023-04-26T02:24:22;12.27;;;5.25;;
39400;SDS011;54391;50.000;7.360;2023-04-26T02:26:50;14.75;;;4.78;;
39400;SDS011;54391;50.000;7.360;2023-04-26T02:29:18;10.60;;;4.80;;
39400;SDS011;54391;50.000;7.360;2023-04-26T02:31:48;12.60;;;4.53;;
39400;SDS011;54391;50.000;7.360;2023-04-26T02:34:16;13.73;;;4.57;;
39400;SDS011;54391;50.000;7.360;2023-04-26T02:36:44;13.88;;;4.93;;
39400;SDS011;54391;50.000;7.360;2023-04-26T02:39:13;10.05;;;4.47;;
39400;SDS011;54391;50.000;7.360;2023-04-26T02:41:41;12.80;;;4.57;;
39400;SDS011;54391;50.000;7.360;2023-04-26T02:44:08;12.50;;;4.90;;
39400;SDS011;54391;50.000;7.360;2023-04-26T02:46:35;12.60;;;5.00;;
39400;SDS011;54391;50.000;7.360;2023-04-26T02:49:05;8.18;;;3.90;;
39400;SDS011;54391;50.000;7.360;2023-04-26T02:51:32;12.27;;;5.03;;
39400;SDS011;54391;50.000;7.360;2023-04-26T02:54:00;8.68;;;4.32;;
39400;SDS011;54391;50.000;7.360;2023-04-26T02:56:27;9.98;;;4.30;;
39400;SDS011;54391;50.000;7.360;2023-04-26T02:58:54;11.10;;;5.28;;
39400;SDS011;54391;50.000;7.360;2023-04-26T03:01:22;12.98;;;5.13;;
39400;SDS011;54391;50.000;7.360;2023-04-26T03:03:49;10.77;;;5.53;;
39400;SDS011;54391;50.000;7.360;2023-04-26T03:06:18;16.42;;;5.75;;
39400;SDS011;54391;50.000;7.360;2023-04-26T03:08:45;13.10;;;4.97;;
39400;SDS011;54391;50.000;7.360;2023-04-26T03:11:13;15.88;;;5.90;;
39400;SDS011;54391;50.000;7.360;2023-04-26T03:13:40;13.02;;;5.20;;
39400;SDS011;54391;50.000;7.360;2023-04-26T03:16:07;13.25;;;5.70;;
39400;SDS011;54391;50.000;7.360;2023-04-26T03:18:35;13.68;;;5.47;;
39400;SDS011;54391;50.000;7.360;2023-04-26T03:21:04;13.45;;;5.25;;
39400;SDS011;54391;50.000;7.360;2023-04-26T03:23:32;11.35;;;4.53;;
39400;SDS011;54391;50.000;7.360;2023-04-26T03:26:00;10.85;;;4.60;;
39400;SDS011;54391;50.000;7.360;2023-04-26T03:28:28;9.20;;;4.45;;
39400;SDS011;54391;50.000;7.360;2023-04-26T03:30:55;10.65;;;4.90;;
39400;SDS011;54391;50.000;7.360;2023-04-26T03:33:23;9.90;;;4.35;;
39400;SDS011;54391;50.000;7.360;2023-04-26T03:35:50;10.05;;;4.70;;
39400;SDS011;54391;50.000;7.360;2023-04-26T03:38:17;13.30;;;4.65;;
39400;SDS011;54391;50.000;7.360;2023-04-26T03:40:46;14.48;;;4.85;;
39400;SDS011;54391;50.000;7.360;2023-04-26T03:43:13;9.55;;;4.55;;
39400;SDS011;54391;50.000;7.360;2023-04-26T03:45:41;12.05;;;4.68;;
39400;SDS011;54391;50.000;7.360;2023-04-26T03:48:08;17.73;;;6.50;;
39400;SDS011;54391;50.000;7.360;2023-04-26T03:50:35;12.45;;;6.50;;
39400;SDS011;54391;50.000;7.360;2023-04-26T03:53:04;14.95;;;7.00;;
39400;SDS011;54391;50.000;7.360;2023-04-26T03:55:31;18.23;;;6.55;;
39400;SDS011;54391;50.000;7.360;2023-04-26T03:58:00;15.70;;;6.15;;
39400;SDS011;54391;50.000;7.360;2023-04-26T04:00:32;14.43;;;5.95;;
39400;SDS011;54391;50.000;7.360;2023-04-26T04:02:59;10.18;;;4.82;;
39400;SDS011;54391;50.000;7.360;2023-04-26T04:05:27;10.57;;;4.90;;
39400;SDS011;54391;50.000;7.360;2023-04-26T04:07:56;14.07;;;5.97;;
39400;SDS011;54391;50.000;7.360;2023-04-26T04:10:23;14.55;;;5.78;;
39400;SDS011;54391;50.000;7.360;2023-04-26T04:12:51;15.20;;;5.43;;
39400;SDS011;54391;50.000;7.360;2023-04-26T04:15:20;24.73;;;10.07;;
39400;SDS011;54391;50.000;7.360;2023-04-26T04:17:48;29.65;;;11.68;;
39400;SDS011;54391;50.000;7.360;2023-04-26T04:20:15;19.92;;;6.90;;
39400;SDS011;54391;50.000;7.360;2023-04-26T04:22:43;16.52;;;7.25;;
39400;SDS011;54391;50.000;7.360;2023-04-26T04:25:10;12.38;;;5.07;;
39400;SDS011;54391;50.000;7.360;2023-04-26T04:27:39;10.68;;;4.47;;
39400;SDS011;54391;50.000;7.360;2023-04-26T04:30:08;12.80;;;5.18;;
39400;SDS011;54391;50.000;7.360;2023-04-26T04:32:38;17.80;;;5.20;;
39400;SDS011;54391;50.000;7.360;2023-04-26T04:35:09;13.75;;;4.88;;
39400;SDS011;54391;50.000;7.360;2023-04-26T04:37:36;14.10;;;5.13;;
39400;SDS011;54391;50.000;7.360;2023-04-26T04:40:04;12.65;;;5.90;;
39400;SDS011;54391;50.000;7.360;2023-04-26T04:42:36;12.70;;;5.35;;
39400;SDS011;54391;50.000;7.360;2023-04-26T04:45:06;10.27;;;4.82;;
39400;SDS011;54391;50.000;7.360;2023-04-26T04:47:38;20.85;;;7.15;;
39400;SDS011;54391;50.000;7.360;2023-04-26T04:50:06;19.55;;;7.40;;
39400;SDS011;54391;50.000;7.360;2023-04-26T04:52:35;17.05;;;7.43;;
39400;SDS011;54391;50.000;7.360;2023-04-26T04:55:02;18.80;;;7.18;;
39400;SDS011;54391;50.000;7.360;2023-04-26T04:57:32;15.23;;;7.40;;
39400;SDS011;54391;50.000;7.360;2023-04-26T05:00:02;14.82;;;7.05;;
39400;SDS011;54391;50.000;7.360;2023-04-26T05:02:40;18.17;;;7.20;;
39400;SDS011;54391;50.000;7.360;2023-04-26T05:05:07;12.40;;;6.60;;
39400;SDS011;54391;50.000;7.360;2023-04-26T05:07:36;14.20;;;6.57;;
39400;SDS011;54391;50.000;7.360;2023-04-26T05:10:04;14.75;;;7.57;;
39400;SDS011;54391;50.000;7.360;2023-04-26T05:12:32;12.95;;;5.40;;
39400;SDS011;54391;50.000;7.360;2023-04-26T05:15:01;11.55;;;5.47;;
39400;SDS011;54391;50.000;7.360;2023-04-26T05:17:30;13.88;;;6.05;;
39400;SDS011;54391;50.000;7.360;2023-04-26T05:20:09;9.50;;;5.60;;
39400;SDS011;54391;50.000;7.360;2023-04-26T05:22:36;16.10;;;5.90;;
39400;SDS011;54391;50.000;7.360;2023-04-26T05:25:05;11.45;;;5.30;;
39400;SDS011;54391;50.000;7.360;2023-04-26T05:27:33;19.85;;;6.88;;
39400;SDS011;54391;50.000;7.360;2023-04-26T05:30:25;15.10;;;6.78;;
39400;SDS011;54391;50.000;7.360;2023-04-26T05:33:11;16.17;;;6.82;;
39400;SDS011;54391;50.000;7.360;2023-04-26T05:35:54;19.50;;;7.15;;
39400;SDS011;54391;50.000;7.360;2023-04-26T05:38:23;15.23;;;6.35;;
39400;SDS011;54391;50.000;7.360;2023-04-26T05:40:50;13.10;;;5.97;;
39400;SDS011;54391;50.000;7.360;2023-04-26T05:43:18;16.33;;;5.43;;
39400;SDS011;54391;50.000;7.360;2023-04-26T05:45:51;10.88;;;4.82;;
39400;SDS011;54391;50.000;7.360;2023-04-26T05:48:20;13.77;;;5.43;;
39400;SDS011;54391;50.000;7.360;2023-04-26T05:50:48;15.05;;;5.13;;
39400;SDS011;54391;50.000;7.360;2023-04-26T05:53:19;11.52;;;5.35;;
39400;SDS011;54391;50.000;7.360;2023-04-26T05:55:46;13.38;;;5.25;;
39400;SDS011;54391;50.000;7.360;2023-04-26T05:58:14;12.30;;;5.53;;
39400;SDS011;54391;50.000;7.360;2023-04-26T06:00:42;14.82;;;5.60;;
39400;SDS011;54391;50.000;7.360;2023-04-26T06:03:09;15.23;;;6.40;;
39400;SDS011;54391;50.000;7.360;2023-04-26T06:05:37;16.42;;;8.80;;
39400;SDS011;54391;50.000;7.360;2023-04-26T06:08:05;15.38;;;6.88;;
39400;SDS011;54391;50.000;7.360;2023-04-26T06:10:35;14.68;;;6.63;;
39400;SDS011;54391;50.000;7.360;2023-04-26T06:13:02;13.68;;;6.93;;
39400;SDS011;54391;50.000;7.360;2023-04-26T06:15:33;14.32;;;6.18;;
39400;SDS011;54391;50.000;7.360;2023-04-26T06:18:00;17.17;;;6.55;;
39400;SDS011;54391;50.000;7.360;2023-04-26T06:20:30;13.15;;;6.18;;
39400;SDS011;54391;50.000;7.360;2023-04-26T06:22:57;11.43;;;6.50;;
39400;SDS011;54391;50.000;7.360;2023-04-26T06:25:25;18.83;;;7.13;;
39400;SDS011;54391;50.000;7.360;2023-04-26T06:27:53;13.43;;;6.22;;
39400;SDS011;54391;50.000;7.360;2023-04-26T06:30:23;14.85;;;7.10;;
39400;SDS011;54391;50.000;7.360;2023-04-26T06:32:51;14.38;;;8.07;;
39400;SDS011;54391;50.000;7.360;2023-04-26T06:35:18;13.93;;;6.93;;
39400;SDS011;54391;50.000;7.360;2023-04-26T06:37:47;16.90;;;8.77;;
39400;SDS011;54391;50.000;7.360;2023-04-26T06:40:15;17.15;;;9.65;;
39400;SDS011;54391;50.000;7.360;2023-04-26T06:42:42;16.23;;;7.63;;
39400;SDS011;54391;50.000;7.360;2023-04-26T06:45:32;23.88;;;9.32;;
39400;SDS011;54391;50.000;7.360;2023-04-26T06:47:59;13.52;;;6.85;;
39400;SDS011;54391;50.000;7.360;2023-04-26T06:50:29;10.65;;;6.78;;
39400;SDS011;54391;50.000;7.360;2023-04-26T06:52:57;18.73;;;8.48;;
39400;SDS011;54391;50.000;7.360;2023-04-26T06:55:24;14.65;;;8.48;;
39400;SDS011;54391;50.000;7.360;2023-04-26T06:57:51;14.68;;;6.25;;
39400;SDS011;54391;50.000;7.360;2023-04-26T07:00:20;15.93;;;6.25;;
39400;SDS011;54391;50.000;7.360;2023-04-26T07:02:49;16.27;;;7.10;;
39400;SDS011;54391;50.000;7.360;2023-04-26T07:05:16;18.00;;;9.52;;
39400;SDS011;54391;50.000;7.360;2023-04-26T07:07:44;17.38;;;7.15;;
39400;SDS011;54391;50.000;7.360;2023-04-26T07:10:12;10.80;;;4.65;;
39400;SDS011;54391;50.000;7.360;2023-04-26T07:12:39;9.57;;;4.25;;
39400;SDS011;54391;50.000;7.360;2023-04-26T07:15:07;9.95;;;3.92;;
39400;SDS011;54391;50.000;7.360;2023-04-26T07:17:35;9.57;;;3.55;;
39400;SDS011;54391;50.000;7.360;2023-04-26T07:20:04;14.07;;;4.32;;
39400;SDS011;54391;50.000;7.360;2023-04-26T07:22:32;12.77;;;5.13;;
39400;SDS011;54391;50.000;7.360;2023-04-26T07:24:59;10.50;;;4.90;;
39400;SDS011;54391;50.000;7.360;2023-04-26T07:27:27;11.45;;;4.90;;
39400;SDS011;54391;50.000;7.360;2023-04-26T07:29:55;8.25;;;2.95;;
39400;SDS011;54391;50.000;7.360;2023-04-26T07:32:23;9.85;;;3.60;;
39400;SDS011;54391;50.000;7.360;2023-04-26T07:34:50;7.13;;;2.97;;
39400;SDS011;54391;50.000;7.360;2023-04-26T07:37:19;11.18;;;3.60;;
39400;SDS011;54391;50.000;7.360;2023-04-26T07:39:46;9.27;;;2.58;;
39400;SDS011;54391;50.000;7.360;2023-04-26T07:42:14;7.07;;;2.63;;
39400;SDS011;54391;50.000;7.360;2023-04-26T07:44:41;9.15;;;2.92;;
39400;SDS011;54391;50.000;7.360;2023-04-26T07:47:11;9.23;;;3.35;;
39400;SDS011;54391;50.000;7.360;2023-04-26T07:49:39;11.65;;;3.65;;
39400;SDS011;54391;50.000;7.360;2023-04-26T07:52:07;8.60;;;3.67;;
39400;SDS011;54391;50.000;7.360;2023-04-26T07:54:35;8.68;;;3.78;;
39400;SDS011;54391;50.000;7.360;2023-04-26T07:57:04;15.45;;;4.28;;
39400;SDS011;54391;50.000;7.360;2023-04-26T07:59:31;10.27;;;3.72;;
39400;SDS011;54391;50.000;7.360;2023-04-26T08:01:58;9.45;;;4.55;;
39400;SDS011;54391;50.000;7.360;2023-04-26T08:04:29;11.35;;;3.80;;
39400;SDS011;54391;50.000;7.360;2023-04-26T08:06:59;7.03;;;3.40;;
39400;SDS011;54391;50.000;7.360;2023-04-26T08:09:27;11.63;;;4.28;;
39400;SDS011;54391;50.000;7.360;2023-04-26T08:11:56;9.73;;;4.03;;
39400;SDS011;54391;50.000;7.360;2023-04-26T08:14:23;10.50;;;5.20;;
39400;SDS011;54391;50.000;7.360;2023-04-26T08:16:51;10.20;;;4.68;;
39400;SDS011;54391;50.000;7.360;2023-04-26T08:19:18;13.98;;;4.50;;
39400;SDS011;54391;50.000;7.360;2023-04-26T08:21:48;9.73;;;4.57;;
39400;SDS011;54391;50.000;7.360;2023-04-26T08:24:15;10.00;;;4.88;;
39400;SDS011;54391;50.000;7.360;2023-04-26T08:26:42;10.75;;;4.45;;
39400;SDS011;54391;50.000;7.360;2023-04-26T08:29:11;12.43;;;4.10;;
39400;SDS011;54391;50.000;7.360;2023-04-26T08:31:39;13.02;;;4.43;;
39400;SDS011;54391;50.000;7.360;2023-04-26T08:34:06;10.80;;;4.05;;
39400;SDS011;54391;50.000;7.360;2023-04-26T08:36:35;10.52;;;3.90;;
39400;SDS011;54391;50.000;7.360;2023-04-26T08:39:03;11.10;;;4.18;;
39400;SDS011;54391;50.000;7.360;2023-04-26T08:41:35;12.88;;;5.13;;
39400;SDS011;54391;50.000;7.360;2023-04-26T08:44:03;9.18;;;4.13;;
39400;SDS011;54391;50.000;7.360;2023-04-26T08:46:35;7.50;;;4.35;;
39400;SDS011;54391;50.000;7.360;2023-04-26T08:49:14;12.13;;;4.40;;
39400;SDS011;54391;50.000;7.360;2023-04-26T08:51:54;10.93;;;4.70;;
39400;SDS011;54391;50.000;7.360;2023-04-26T08:54:23;15.13;;;5.65;;
39400;SDS011;54391;50.000;7.360;2023-04-26T08:56:51;9.07;;;4.78;;
39400;SDS011;54391;50.000;7.360;2023-04-26T08:59:20;12.65;;;5.22;;
39400;SDS011;54391;50.000;7.360;2023-04-26T09:01:50;12.40;;;5.03;;
39400;SDS011;54391;50.000;7.360;2023-04-26T09:04:19;10.25;;;4.80;;
39400;SDS011;54391;50.000;7.360;2023-04-26T09:06:46;11.77;;;5.15;;
39400;SDS011;54391;50.000;7.360;2023-04-26T09:09:15;10.05;;;3.90;;
39400;SDS011;54391;50.000;7.360;2023-04-26T09:11:51;10.63;;;3.80;;
39400;SDS011;54391;50.000;7.360;2023-04-26T09:14:20;9.63;;;3.53;;
39400;SDS011;54391;50.000;7.360;2023-04-26T09:16:47;5.88;;;3.25;;
39400;SDS011;54391;50.000;7.360;2023-04-26T09:19:16;10.70;;;4.30;;
39400;SDS011;54391;50.000;7.360;2023-04-26T09:21:43;8.07;;;3.38;;
39400;SDS011;54391;50.000;7.360;2023-04-26T09:24:12;9.30;;;3.90;;
39400;SDS011;54391;50.000;7.360;2023-04-26T09:26:39;11.32;;;3.47;;
39400;SDS011;54391;50.000;7.360;2023-04-26T09:29:11;9.75;;;3.83;;
39400;SDS011;54391;50.000;7.360;2023-04-26T09:31:40;6.65;;;3.75;;
39400;SDS011;54391;50.000;7.360;2023-04-26T09:34:08;10.25;;;4.03;;
39400;SDS011;54391;50.000;7.360;2023-04-26T09:36:47;10.18;;;4.03;;
39400;SDS011;54391;50.000;7.360;2023-04-26T09:41:58;9.82;;;3.72;;
39400;SDS011;54391;50.000;7.360;2023-04-26T09:44:27;14.20;;;5.00;;
39400;SDS011;54391;50.000;7.360;2023-04-26T09:47:00;9.30;;;3.53;;
39400;SDS011;54391;50.000;7.360;2023-04-26T09:49:29;11.75;;;3.80;;
39400;SDS011;54391;50.000;7.360;2023-04-26T09:52:00;10.05;;;3.85;;
39400;SDS011;54391;50.000;7.360;2023-04-26T09:54:38;6.30;;;3.67;;
39400;SDS011;54391;50.000;7.360;2023-04-26T09:57:07;7.88;;;3.45;;
39400;SDS011;54391;50.000;7.360;2023-04-26T09:59:38;6.57;;;3.53;;
39400;SDS011;54391;50.000;7.360;2023-04-26T10:02:09;7.10;;;3.53;;
39400;SDS011;54391;50.000;7.360;2023-04-26T10:04:43;9.43;;;3.67;;
39400;SDS011;54391;50.000;7.360;2023-04-26T10:07:13;7.72;;;3.38;;
39400;SDS011;54391;50.000;7.360;2023-04-26T10:09:42;7.45;;;3.30;;
39400;SDS011;54391;50.000;7.360;2023-04-26T10:12:11;6.00;;;3.33;;
39400;SDS011;54391;50.000;7.360;2023-04-26T10:14:41;8.65;;;3.80;;
39400;SDS011;54391;50.000;7.360;2023-04-26T10:17:09;9.20;;;3.42;;
39400;SDS011;54391;50.000;7.360;2023-04-26T10:19:37;8.90;;;3.55;;
39400;SDS011;54391;50.000;7.360;2023-04-26T10:22:09;9.13;;;3.90;;
39400;SDS011;54391;50.000;7.360;2023-04-26T10:24:41;6.63;;;3.10;;
39400;SDS011;54391;50.000;7.360;2023-04-26T10:27:09;8.02;;;4.05;;
39400;SDS011;54391;50.000;7.360;2023-04-26T10:43:57;8.35;;;3.10;;
39400;SDS011;54391;50.000;7.360;2023-04-26T10:46:34;6.90;;;3.58;;
39400;SDS011;54391;50.000;7.360;2023-04-26T10:49:12;8.55;;;3.30;;
39400;SDS011;54391;50.000;7.360;2023-04-26T10:54:45;13.57;;;4.45;;
39400;SDS011;54391;50.000;7.360;2023-04-26T10:57:19;7.97;;;3.72;;
39400;SDS011;54391;50.000;7.360;2023-04-26T11:02:45;6.57;;;2.78;;
39400;SDS011;54391;50.000;7.360;2023-04-26T11:08:02;7.72;;;3.28;;
39400;SDS011;54391;50.000;7.360;2023-04-26T11:10:36;7.40;;;3.13;;
39400;SDS011;54391;50.000;7.360;2023-04-26T11:13:05;8.27;;;3.25;;
39400;SDS011;54391;50.000;7.360;2023-04-26T11:15:33;7.72;;;3.30;;
39400;SDS011;54391;50.000;7.360;2023-04-26T11:18:01;10.50;;;3.40;;
39400;SDS011;54391;50.000;7.360;2023-04-26T11:20:30;6.32;;;2.92;;
39400;SDS011;54391;50.000;7.360;2023-04-26T11:22:57;6.38;;;3.03;;
39400;SDS011;54391;50.000;7.360;2023-04-26T11:25:25;6.57;;;2.90;;
39400;SDS011;54391;50.000;7.360;2023-04-26T11:27:57;8.52;;;3.03;;
39400;SDS011;54391;50.000;7.360;2023-04-26T11:30:29;5.47;;;2.70;;
39400;SDS011;54391;50.000;7.360;2023-04-26T11:32:56;6.38;;;2.67;;
39400;SDS011;54391;50.000;7.360;2023-04-26T11:35:24;6.68;;;2.88;;
39400;SDS011;54391;50.000;7.360;2023-04-26T11:37:56;4.30;;;2.83;;
39400;SDS011;54391;50.000;7.360;2023-04-26T11:40:26;6.65;;;3.25;;
39400;SDS011;54391;50.000;7.360;2023-04-26T11:42:57;5.75;;;2.95;;
39400;SDS011;54391;50.000;7.360;2023-04-26T11:45:29;7.10;;;2.90;;
39400;SDS011;54391;50.000;7.360;2023-04-26T11:47:58;7.72;;;2.90;;
39400;SDS011;54391;50.000;7.360;2023-04-26T11:50:26;5.53;;;2.53;;
39400;SDS011;54391;50.000;7.360;2023-04-26T11:52:54;8.00;;;2.67;;
39400;SDS011;54391;50.000;7.360;2023-04-26T11:55:22;7.28;;;2.50;;
39400;SDS011;54391;50.000;7.360;2023-04-26T11:57:52;8.13;;;2.80;;
39400;SDS011;54391;50.000;7.360;2023-04-26T12:00:20;6.65;;;3.08;;
39400;SDS011;54391;50.000;7.360;2023-04-26T12:02:50;7.05;;;2.58;;
39400;SDS011;54391;50.000;7.360;2023-04-26T12:05:21;6.35;;;2.80;;
39400;SDS011;54391;50.000;7.360;2023-04-26T12:07:49;9.93;;;3.85;;
39400;SDS011;54391;50.000;7.360;2023-04-26T12:10:18;6.40;;;2.78;;
39400;SDS011;54391;50.000;7.360;2023-04-26T12:12:47;8.73;;;2.88;;
39400;SDS011;54391;50.000;7.360;2023-04-26T12:15:15;8.27;;;3.10;;
39400;SDS011;54391;50.000;7.360;2023-04-26T12:17:57;5.50;;;2.60;;
39400;SDS011;54391;50.000;7.360;2023-04-26T12:20:27;7.35;;;2.35;;
39400;SDS011;54391;50.000;7.360;2023-04-26T12:22:57;8.00;;;2.85;;
39400;SDS011;54391;50.000;7.360;2023-04-26T12:25:25;6.28;;;2.28;;
39400;SDS011;54391;50.000;7.360;2023-04-26T12:27:52;8.65;;;2.50;;
39400;SDS011;54391;50.000;7.360;2023-04-26T12:30:20;9.48;;;2.20;;
39400;SDS011;54391;50.000;7.360;2023-04-26T12:33:01;5.68;;;2.55;;
39400;SDS011;54391;50.000;7.360;2023-04-26T12:35:29;7.70;;;2.60;;
39400;SDS011;54391;50.000;7.360;2023-04-26T12:37:57;6.38;;;2.65;;
39400;SDS011;54391;50.000;7.360;2023-04-26T12:40:27;6.50;;;2.72;;
39400;SDS011;54391;50.000;7.360;2023-04-26T12:42:55;8.20;;;2.60;;
39400;SDS011;54391;50.000;7.360;2023-04-26T12:45:23;6.38;;;2.38;;
39400;SDS011;54391;50.000;7.360;2023-04-26T12:47:51;5.05;;;2.42;;
39400;SDS011;54391;50.000;7.360;2023-04-26T12:50:20;6.30;;;2.63;;
39400;SDS011;54391;50.000;7.360;2023-04-26T12:52:48;7.07;;;3.33;;
39400;SDS011;54391;50.000;7.360;2023-04-26T12:55:15;6.25;;;2.15;;
39400;SDS011;54391;50.000;7.360;2023-04-26T12:57:43;5.57;;;1.83;;
39400;SDS011;54391;50.000;7.360;2023-04-26T13:00:11;5.70;;;2.20;;
39400;SDS011;54391;50.000;7.360;2023-04-26T13:02:40;6.60;;;2.50;;
39400;SDS011;54391;50.000;7.360;2023-04-26T13:05:08;9.00;;;3.05;;
39400;SDS011;54391;50.000;7.360;2023-04-26T13:07:37;7.05;;;3.22;;
39400;SDS011;54391;50.000;7.360;2023-04-26T13:10:06;6.63;;;2.72;;
39400;SDS011;54391;50.000;7.360;2023-04-26T13:12:35;9.55;;;4.25;;
39400;SDS011;54391;50.000;7.360;2023-04-26T13:15:03;6.47;;;2.13;;
39400;SDS011;54391;50.000;7.360;2023-04-26T13:17:31;6.07;;;2.85;;
39400;SDS011;54391;50.000;7.360;2023-04-26T13:19:59;8.13;;;3.13;;
39400;SDS011;54391;50.000;7.360;2023-04-26T13:22:27;5.00;;;2.35;;
39400;SDS011;54391;50.000;7.360;2023-04-26T13:24:56;9.27;;;2.80;;
39400;SDS011;54391;50.000;7.360;2023-04-26T13:27:23;9.27;;;3.25;;
39400;SDS011;54391;50.000;7.360;2023-04-26T13:29:50;8.27;;;3.80;;
39400;SDS011;54391;50.000;7.360;2023-04-26T13:32:18;4.60;;;2.50;;
39400;SDS011;54391;50.000;7.360;2023-04-26T13:34:46;4.90;;;2.67;;
39400;SDS011;54391;50.000;7.360;2023-04-26T13:37:13;8.73;;;3.15;;
39400;SDS011;54391;50.000;7.360;2023-04-26T13:39:41;5.95;;;2.13;;
39400;SDS011;54391;50.000;7.360;2023-04-26T13:42:10;9.10;;;2.30;;
39400;SDS011;54391;50.000;7.360;2023-04-26T13:44:37;3.63;;;1.90;;
39400;SDS011;54391;50.000;7.360;2023-04-26T13:47:04;5.82;;;2.40;;
39400;SDS011;54391;50.000;7.360;2023-04-26T13:49:32;8.52;;;2.78;;
39400;SDS011;54391;50.000;7.360;2023-04-26T13:51:59;6.95;;;3.25;;
39400;SDS011;54391;50.000;7.360;2023-04-26T13:54:27;8.75;;;2.30;;
39400;SDS011;54391;50.000;7.360;2023-04-26T13:56:54;5.45;;;2.15;;
39400;SDS011;54391;50.000;7.360;2023-04-26T13:59:23;4.32;;;2.42;;
39400;SDS011;54391;50.000;7.360;2023-04-26T14:01:51;7.00;;;2.78;;
39400;SDS011;54391;50.000;7.360;2023-04-26T14:04:18;7.22;;;2.85;;
39400;SDS011;54391;50.000;7.360;2023-04-26T14:06:45;4.85;;;2.05;;
39400;SDS011;54391;50.000;7.360;2023-04-26T14:09:13;7.43;;;2.20;;
39400;SDS011;54391;50.000;7.360;2023-04-26T14:11:40;6.88;;;2.40;;
39400;SDS011;54391;50.000;7.360;2023-04-26T14:14:07;6.40;;;2.45;;
39400;SDS011;54391;50.000;7.360;2023-04-26T14:16:36;4.45;;;2.13;;
39400;SDS011;54391;50.000;7.360;2023-04-26T14:19:03;4.63;;;2.10;;
39400;SDS011;54391;50.000;7.360;2023-04-26T14:21:30;5.25;;;2.10;;
39400;SDS011;54391;50.000;7.360;2023-04-26T14:23:58;5.85;;;2.38;;
39400;SDS011;54391;50.000;7.360;2023-04-26T14:26:25;3.35;;;2.17;;
39400;SDS011;54391;50.000;7.360;2023-04-26T14:28:52;8.50;;;2.55;;
39400;SDS011;54391;50.000;7.360;2023-04-26T14:31:20;4.63;;;2.10;;
39400;SDS011;54391;50.000;7.360;2023-04-26T14:33:51;4.22;;;2.00;;
39400;SDS011;54391;50.000;7.360;2023-04-26T14:36:19;5.93;;;2.13;;
39400;SDS011;54391;50.000;7.360;2023-04-26T14:38:46;3.92;;;2.03;;
39400;SDS011;54391;50.000;7.360;2023-04-26T14:41:13;6.85;;;2.50;;
39400;SDS011;54391;50.000;7.360;2023-04-26T14:43:41;2.35;;;1.67;;
39400;SDS011;54391;50.000;7.360;2023-04-26T14:46:10;4.30;;;1.80;;
39400;SDS011;54391;50.000;7.360;2023-04-26T14:48:37;6.55;;;2.15;;
39400;SDS011;54391;50.000;7.360;2023-04-26T14:51:06;7.15;;;2.10;;
39400;SDS011;54391;50.000;7.360;2023-04-26T14:53:33;4.65;;;1.88;;
39400;SDS011;54391;50.000;7.360;2023-04-26T14:56:01;4.95;;;1.70;;
39400;SDS011;54391;50.000;7.360;2023-04-26T14:58:30;5.03;;;1.90;;
39400;SDS011;54391;50.000;7.360;2023-04-26T15:00:57;4.72;;;2.13;;
39400;SDS011;54391;50.000;7.360;2023-04-26T15:03:24;4.00;;;2.03;;
39400;SDS011;54391;50.000;7.360;2023-04-26T15:05:52;3.55;;;1.60;;
39400;SDS011;54391;50.000;7.360;2023-04-26T15:08:20;5.40;;;1.65;;
39400;SDS011;54391;50.000;7.360;2023-04-26T15:10:48;5.75;;;1.90;;
39400;SDS011;54391;50.000;7.360;2023-04-26T15:13:15;4.97;;;1.70;;
39400;SDS011;54391;50.000;7.360;2023-04-26T15:15:42;5.05;;;1.52;;